Check out our new PWSWeather beta!
PWSweather.com
Personal Weather Stations
Station Observations
GIRWX1
Presovsky Kraj, GiraltovceSK

Presovsky KrajGiraltovceSK

Lat: 49.118, Lon: 21.52

Elevation: 630

Station Type: wh1080

http://www.meteogiraltovce.wz.cz/

High Low Average
Temperature 50.7°F10.4°C 41.3°F5.2°C 45.8°F7.7°C
Dew Point 47.9°F8.8°C 37.9°F3.3°C 42.8°F6.0°C
Winds 4.7 mph 7.6 kmh Calm Calm 1.0 mph SSE1.6 kmh SSE
Wind Gusts 6.9 mph11.1 kmh -- 2.0 mph3.2 kmh
Humidity 91% 85% 89%
Pressure 29.90 in1012.5 mb 29.74 in1007.1 mb -
Precipitation 0.11 in2.8 mm - -
Hour Temp Dew Point Humidity Winds Wind Gusts Pressure Precip Precip Rate Daily Precip Total
12:00 AM 41.4°F5.2°C 37.9°F3.3°C 88% 0.7 mph ENE1.1 kmh ENE 2.2 mph3.5 kmh 29.80 in1009.1 mb 0.00 in0.0 mm 0.00 in0.0 mm 0.00 in0.0 mm
12:05 AM 41.4°F5.2°C 38.1°F3.4°C 88% 0.7 mph 1.1 kmh 1.6 mph2.6 kmh 29.79 in1008.8 mb 0.00 in0.0 mm 0.00 in0.0 mm 0.00 in0.0 mm
12:10 AM 41.5°F5.3°C 38.2°F3.4°C 88% 0.2 mph 0.3 kmh 1.6 mph2.6 kmh 29.80 in1009.1 mb 0.00 in0.0 mm 0.00 in0.0 mm 0.00 in0.0 mm
12:15 AM 41.6°F5.3°C 38.3°F3.5°C 88% 0.2 mph W0.3 kmh W 1.6 mph2.6 kmh 29.79 in1008.8 mb 0.00 in0.0 mm 0.00 in0.0 mm 0.00 in0.0 mm
12:20 AM 41.7°F5.4°C 38.4°F3.6°C 88% Calm Calm -- 29.79 in1008.8 mb 0.00 in0.0 mm 0.00 in0.0 mm 0.00 in0.0 mm
12:25 AM 41.8°F5.4°C 38.5°F3.6°C 88% Calm Calm -- 29.79 in1008.8 mb 0.00 in0.0 mm 0.00 in0.0 mm 0.00 in0.0 mm
12:30 AM 41.9°F5.5°C 38.6°F3.7°C 88% 0.4 mph NE0.6 kmh NE 1.6 mph2.6 kmh 29.79 in1008.8 mb 0.00 in0.0 mm 0.00 in0.0 mm 0.00 in0.0 mm
12:35 AM 42.1°F5.6°C 39.0°F3.9°C 89% 0.2 mph NE0.3 kmh NE 1.6 mph2.6 kmh 29.79 in1008.8 mb 0.00 in0.0 mm 0.00 in0.0 mm 0.00 in0.0 mm
12:40 AM 42.2°F5.7°C 39.2°F4.0°C 89% Calm Calm 0.7 mph1.1 kmh 29.79 in1008.8 mb 0.00 in0.0 mm 0.00 in0.0 mm 0.00 in0.0 mm
12:45 AM 42.3°F5.7°C 39.3°F4.1°C 89% 0.4 mph 0.6 kmh 1.6 mph2.6 kmh 29.80 in1009.1 mb 0.00 in0.0 mm 0.00 in0.0 mm 0.00 in0.0 mm
12:50 AM 42.4°F5.8°C 39.4°F4.1°C 89% 0.5 mph 0.8 kmh 1.6 mph2.6 kmh 29.80 in1009.1 mb 0.00 in0.0 mm 0.00 in0.0 mm 0.00 in0.0 mm
12:55 AM 42.4°F5.8°C 39.4°F4.1°C 89% 0.4 mph NNE0.6 kmh NNE 1.6 mph2.6 kmh 29.79 in1008.8 mb 0.00 in0.0 mm 0.00 in0.0 mm 0.00 in0.0 mm
01:00 AM 42.5°F5.8°C 39.5°F4.2°C 89% 1.9 mph NE3.1 kmh NE 3.8 mph6.1 kmh 29.79 in1008.8 mb 0.00 in0.0 mm 0.00 in0.0 mm 0.00 in0.0 mm
01:05 AM 42.6°F5.9°C 39.6°F4.2°C 89% 1.4 mph NNE2.3 kmh NNE 3.1 mph5.0 kmh 29.79 in1008.8 mb 0.00 in0.0 mm 0.00 in0.0 mm 0.00 in0.0 mm
01:10 AM 42.6°F5.9°C 39.6°F4.2°C 89% 1.2 mph N1.9 kmh N 3.1 mph5.0 kmh 29.79 in1008.8 mb 0.00 in0.0 mm 0.00 in0.0 mm 0.00 in0.0 mm
01:15 AM 42.8°F6.0°C 39.8°F4.3°C 89% 1.8 mph NE2.9 kmh NE 3.1 mph5.0 kmh 29.79 in1008.8 mb 0.00 in0.0 mm 0.00 in0.0 mm 0.00 in0.0 mm
01:20 AM 42.8°F6.0°C 40.1°F4.5°C 90% 1.9 mph NNE3.1 kmh NNE 3.1 mph5.0 kmh 29.78 in1008.5 mb 0.00 in0.0 mm 0.00 in0.0 mm 0.00 in0.0 mm
01:25 AM 43.0°F6.1°C 40.3°F4.6°C 90% 1.3 mph NE2.1 kmh NE 2.2 mph3.5 kmh 29.78 in1008.5 mb 0.00 in0.0 mm 0.00 in0.0 mm 0.00 in0.0 mm
01:30 AM 43.0°F6.1°C 40.3°F4.6°C 90% 1.4 mph NNE2.3 kmh NNE 2.2 mph3.5 kmh 29.78 in1008.5 mb 0.00 in0.0 mm 0.00 in0.0 mm 0.00 in0.0 mm
01:35 AM 43.2°F6.2°C 40.4°F4.7°C 90% 0.5 mph NE0.8 kmh NE 1.6 mph2.6 kmh 29.78 in1008.5 mb 0.00 in0.0 mm 0.00 in0.0 mm 0.00 in0.0 mm
01:40 AM 43.2°F6.2°C 40.4°F4.7°C 90% 0.4 mph SW0.6 kmh SW 1.6 mph2.6 kmh 29.79 in1008.8 mb 0.00 in0.0 mm 0.00 in0.0 mm 0.00 in0.0 mm
01:45 AM 43.2°F6.2°C 40.4°F4.7°C 90% 0.5 mph SSW0.8 kmh SSW 1.6 mph2.6 kmh 29.79 in1008.8 mb 0.00 in0.0 mm 0.00 in0.0 mm 0.00 in0.0 mm
01:50 AM 43.2°F6.2°C 40.4°F4.7°C 90% 0.5 mph S0.8 kmh S 1.6 mph2.6 kmh 29.79 in1008.8 mb 0.00 in0.0 mm 0.00 in0.0 mm 0.00 in0.0 mm
01:55 AM 43.2°F6.2°C 40.4°F4.7°C 90% 0.2 mph SW0.3 kmh SW 1.6 mph2.6 kmh 29.79 in1008.8 mb 0.00 in0.0 mm 0.00 in0.0 mm 0.00 in0.0 mm
02:00 AM 43.2°F6.2°C 40.4°F4.7°C 90% Calm Calm 0.7 mph1.1 kmh 29.79 in1008.8 mb 0.00 in0.0 mm 0.00 in0.0 mm 0.00 in0.0 mm
02:05 AM 43.2°F6.2°C 40.4°F4.7°C 90% Calm Calm -- 29.79 in1008.8 mb 0.00 in0.0 mm 0.00 in0.0 mm 0.00 in0.0 mm
02:10 AM 43.2°F6.2°C 40.5°F4.7°C 90% 0.2 mph SW0.3 kmh SW 1.6 mph2.6 kmh 29.79 in1008.8 mb 0.00 in0.0 mm 0.00 in0.0 mm 0.00 in0.0 mm
02:15 AM 43.3°F6.3°C 40.6°F4.8°C 90% Calm Calm 0.7 mph1.1 kmh 29.79 in1008.8 mb 0.00 in0.0 mm 0.00 in0.0 mm 0.00 in0.0 mm
02:20 AM 43.3°F6.3°C 40.6°F4.8°C 90% Calm Calm 0.7 mph1.1 kmh 29.78 in1008.5 mb 0.00 in0.0 mm 0.00 in0.0 mm 0.00 in0.0 mm
02:25 AM 43.5°F6.4°C 40.8°F4.9°C 90% Calm Calm -- 29.78 in1008.5 mb 0.00 in0.0 mm 0.00 in0.0 mm 0.00 in0.0 mm
02:30 AM 43.5°F6.4°C 40.8°F4.9°C 90% Calm Calm -- 29.78 in1008.5 mb 0.00 in0.0 mm 0.00 in0.0 mm 0.00 in0.0 mm
02:35 AM 43.6°F6.4°C 40.9°F4.9°C 90% Calm Calm 0.7 mph1.1 kmh 29.79 in1008.8 mb 0.00 in0.0 mm 0.00 in0.0 mm 0.00 in0.0 mm
02:40 AM 43.7°F6.5°C 41.0°F5.0°C 90% Calm Calm -- 29.78 in1008.5 mb 0.00 in0.0 mm 0.00 in0.0 mm 0.00 in0.0 mm
02:45 AM 43.7°F6.5°C 41.0°F5.0°C 90% Calm Calm -- 29.78 in1008.5 mb 0.00 in0.0 mm 0.00 in0.0 mm 0.00 in0.0 mm
02:50 AM 43.9°F6.6°C 41.1°F5.1°C 90% Calm Calm -- 29.78 in1008.5 mb 0.00 in0.0 mm 0.00 in0.0 mm 0.00 in0.0 mm
02:55 AM 43.9°F6.6°C 41.1°F5.1°C 90% Calm Calm -- 29.79 in1008.8 mb 0.00 in0.0 mm 0.00 in0.0 mm 0.00 in0.0 mm
03:00 AM 44.0°F6.7°C 41.2°F5.1°C 90% 0.1 mph NE0.2 kmh NE 1.6 mph2.6 kmh 29.79 in1008.8 mb 0.00 in0.0 mm 0.00 in0.0 mm 0.00 in0.0 mm
03:05 AM 44.1°F6.7°C 41.3°F5.2°C 90% 1.2 mph NE1.9 kmh NE 2.2 mph3.5 kmh 29.78 in1008.5 mb 0.00 in0.0 mm 0.00 in0.0 mm 0.00 in0.0 mm
03:10 AM 44.1°F6.7°C 41.3°F5.2°C 90% 1.6 mph NNE2.6 kmh NNE 2.2 mph3.5 kmh 29.78 in1008.5 mb 0.00 in0.0 mm 0.00 in0.0 mm 0.00 in0.0 mm
03:15 AM 44.1°F6.7°C 41.3°F5.2°C 90% 1.8 mph NNE2.9 kmh NNE 3.1 mph5.0 kmh 29.78 in1008.5 mb 0.00 in0.0 mm 0.00 in0.0 mm 0.00 in0.0 mm
03:20 AM 44.1°F6.7°C 41.3°F5.2°C 90% 0.7 mph N1.1 kmh N 1.6 mph2.6 kmh 29.78 in1008.5 mb 0.00 in0.0 mm 0.00 in0.0 mm 0.00 in0.0 mm
03:25 AM 44.1°F6.7°C 41.3°F5.2°C 90% Calm Calm 0.7 mph1.1 kmh 29.78 in1008.5 mb 0.00 in0.0 mm 0.00 in0.0 mm 0.00 in0.0 mm
03:30 AM 44.1°F6.7°C 41.3°F5.2°C 90% 1.1 mph NE1.8 kmh NE 2.2 mph3.5 kmh 29.77 in1008.1 mb 0.00 in0.0 mm 0.00 in0.0 mm 0.00 in0.0 mm
03:35 AM 44.2°F6.8°C 41.5°F5.3°C 90% 1.2 mph NE1.9 kmh NE 2.2 mph3.5 kmh 29.77 in1008.1 mb 0.00 in0.0 mm 0.00 in0.0 mm 0.00 in0.0 mm
03:40 AM 44.2°F6.8°C 41.5°F5.3°C 90% 1.6 mph NE2.6 kmh NE 2.2 mph3.5 kmh 29.77 in1008.1 mb 0.00 in0.0 mm 0.00 in0.0 mm 0.00 in0.0 mm
03:45 AM 44.2°F6.8°C 41.5°F5.3°C 90% 1.3 mph NE2.1 kmh NE 2.2 mph3.5 kmh 29.77 in1008.1 mb 0.00 in0.0 mm 0.00 in0.0 mm 0.00 in0.0 mm
03:50 AM 44.2°F6.8°C 41.5°F5.3°C 90% 1.6 mph 2.6 kmh 2.2 mph3.5 kmh 29.77 in1008.1 mb 0.00 in0.0 mm 0.00 in0.0 mm 0.00 in0.0 mm
03:55 AM 44.2°F6.8°C 41.5°F5.3°C 90% 0.9 mph N1.4 kmh N 2.2 mph3.5 kmh 29.77 in1008.1 mb 0.00 in0.0 mm 0.00 in0.0 mm 0.00 in0.0 mm
04:00 AM 44.3°F6.8°C 41.5°F5.3°C 90% 0.2 mph S0.3 kmh S 1.6 mph2.6 kmh 29.77 in1008.1 mb 0.00 in0.0 mm 0.00 in0.0 mm 0.00 in0.0 mm
04:05 AM 44.4°F6.9°C 41.7°F5.4°C 90% Calm Calm 0.7 mph1.1 kmh 29.77 in1008.1 mb 0.00 in0.0 mm 0.00 in0.0 mm 0.00 in0.0 mm
04:10 AM 44.4°F6.9°C 41.7°F5.4°C 90% Calm Calm 0.7 mph1.1 kmh 29.77 in1008.1 mb 0.00 in0.0 mm 0.00 in0.0 mm 0.00 in0.0 mm
04:15 AM 44.4°F6.9°C 41.8°F5.4°C 90% 0.3 mph 0.5 kmh 1.6 mph2.6 kmh 29.77 in1008.1 mb 0.00 in0.0 mm 0.00 in0.0 mm 0.00 in0.0 mm
04:20 AM 44.4°F6.9°C 42.0°F5.6°C 91% 0.7 mph 1.1 kmh 1.6 mph2.6 kmh 29.77 in1008.1 mb 0.00 in0.0 mm 0.00 in0.0 mm 0.00 in0.0 mm
04:25 AM 44.4°F6.9°C 42.0°F5.6°C 91% Calm Calm 0.7 mph1.1 kmh 29.77 in1008.1 mb 0.00 in0.0 mm 0.00 in0.0 mm 0.00 in0.0 mm
04:30 AM 44.5°F6.9°C 42.0°F5.6°C 91% Calm Calm -- 29.77 in1008.1 mb 0.00 in0.0 mm 0.00 in0.0 mm 0.00 in0.0 mm
04:35 AM 44.6°F7.0°C 42.1°F5.6°C 91% 0.3 mph SW0.5 kmh SW 1.6 mph2.6 kmh 29.77 in1008.1 mb 0.00 in0.0 mm 0.00 in0.0 mm 0.00 in0.0 mm
04:40 AM 44.6°F7.0°C 42.1°F5.6°C 91% 0.1 mph SW0.2 kmh SW 0.7 mph1.1 kmh 29.77 in1008.1 mb 0.00 in0.0 mm 0.00 in0.0 mm 0.00 in0.0 mm
04:45 AM 44.6°F7.0°C 42.1°F5.6°C 91% 0.2 mph SSW0.3 kmh SSW 1.6 mph2.6 kmh 29.77 in1008.1 mb 0.00 in0.0 mm 0.00 in0.0 mm 0.00 in0.0 mm
04:50 AM 44.6°F7.0°C 42.1°F5.6°C 91% Calm Calm 0.7 mph1.1 kmh 29.77 in1008.1 mb 0.00 in0.0 mm 0.00 in0.0 mm 0.00 in0.0 mm
04:55 AM 44.6°F7.0°C 42.1°F5.6°C 91% Calm Calm -- 29.78 in1008.5 mb 0.00 in0.0 mm 0.00 in0.0 mm 0.00 in0.0 mm
05:00 AM 44.6°F7.0°C 42.1°F5.6°C 91% Calm Calm 0.7 mph1.1 kmh 29.78 in1008.5 mb 0.00 in0.0 mm 0.00 in0.0 mm 0.00 in0.0 mm
05:05 AM 44.6°F7.0°C 42.1°F5.6°C 91% Calm Calm 0.7 mph1.1 kmh 29.77 in1008.1 mb 0.00 in0.0 mm 0.00 in0.0 mm 0.00 in0.0 mm
05:10 AM 44.7°F7.1°C 42.2°F5.7°C 91% Calm Calm 0.7 mph1.1 kmh 29.77 in1008.1 mb 0.00 in0.0 mm 0.00 in0.0 mm 0.00 in0.0 mm
05:15 AM 44.8°F7.1°C 42.3°F5.7°C 91% Calm Calm 0.7 mph1.1 kmh 29.77 in1008.1 mb 0.00 in0.0 mm 0.00 in0.0 mm 0.00 in0.0 mm
05:20 AM 44.8°F7.1°C 42.3°F5.7°C 91% Calm Calm 0.7 mph1.1 kmh 29.77 in1008.1 mb 0.00 in0.0 mm 0.00 in0.0 mm 0.00 in0.0 mm
05:25 AM 44.8°F7.1°C 42.3°F5.7°C 91% Calm Calm -- 29.77 in1008.1 mb 0.00 in0.0 mm 0.00 in0.0 mm 0.00 in0.0 mm
05:30 AM 44.9°F7.2°C 42.4°F5.8°C 91% Calm Calm -- 29.77 in1008.1 mb 0.00 in0.0 mm 0.00 in0.0 mm 0.00 in0.0 mm
05:35 AM 45.0°F7.2°C 42.5°F5.8°C 91% 0.3 mph N0.5 kmh N 1.6 mph2.6 kmh 29.77 in1008.1 mb 0.00 in0.0 mm 0.00 in0.0 mm 0.00 in0.0 mm
05:40 AM 45.0°F7.2°C 42.5°F5.8°C 91% 1.3 mph NE2.1 kmh NE 3.1 mph5.0 kmh 29.77 in1008.1 mb 0.00 in0.0 mm 0.00 in0.0 mm 0.00 in0.0 mm
05:45 AM 45.0°F7.2°C 42.5°F5.8°C 91% 1.7 mph NNE2.7 kmh NNE 3.1 mph5.0 kmh 29.76 in1007.8 mb 0.00 in0.0 mm 0.00 in0.0 mm 0.00 in0.0 mm
05:50 AM 45.1°F7.3°C 42.7°F5.9°C 91% 0.3 mph 0.5 kmh 1.6 mph2.6 kmh 29.76 in1007.8 mb 0.00 in0.0 mm 0.00 in0.0 mm 0.00 in0.0 mm
05:55 AM 45.1°F7.3°C 42.7°F5.9°C 91% Calm Calm 0.7 mph1.1 kmh 29.76 in1007.8 mb 0.00 in0.0 mm 0.00 in0.0 mm 0.00 in0.0 mm
06:00 AM 45.1°F7.3°C 42.7°F5.9°C 91% Calm Calm 0.7 mph1.1 kmh 29.77 in1008.1 mb 0.00 in0.0 mm 0.00 in0.0 mm 0.00 in0.0 mm
06:05 AM 45.1°F7.3°C 42.7°F5.9°C 91% Calm Calm 0.7 mph1.1 kmh 29.77 in1008.1 mb 0.00 in0.0 mm 0.00 in0.0 mm 0.00 in0.0 mm
06:10 AM 45.1°F7.3°C 42.7°F5.9°C 91% 0.4 mph SW0.6 kmh SW 1.6 mph2.6 kmh 29.77 in1008.1 mb 0.00 in0.0 mm 0.00 in0.0 mm 0.00 in0.0 mm
06:15 AM 45.1°F7.3°C 42.7°F5.9°C 91% 1.7 mph SW2.7 kmh SW 3.1 mph5.0 kmh 29.77 in1008.1 mb 0.00 in0.0 mm 0.00 in0.0 mm 0.00 in0.0 mm
06:20 AM 45.1°F7.3°C 42.7°F5.9°C 91% 1.1 mph WSW1.8 kmh WSW 2.2 mph3.5 kmh 29.77 in1008.1 mb 0.00 in0.0 mm 0.00 in0.0 mm 0.00 in0.0 mm
06:25 AM 45.1°F7.3°C 42.7°F5.9°C 91% 0.3 mph W0.5 kmh W 1.6 mph2.6 kmh 29.77 in1008.1 mb 0.00 in0.0 mm 0.00 in0.0 mm 0.00 in0.0 mm
06:30 AM 45.1°F7.3°C 42.7°F5.9°C 91% Calm Calm -- 29.77 in1008.1 mb 0.00 in0.0 mm 0.00 in0.0 mm 0.00 in0.0 mm
06:35 AM 45.2°F7.3°C 42.7°F5.9°C 91% Calm Calm -- 29.76 in1007.8 mb 0.00 in0.0 mm 0.00 in0.0 mm 0.00 in0.0 mm
06:40 AM 45.3°F7.4°C 42.8°F6.0°C 91% Calm Calm 0.7 mph1.1 kmh 29.76 in1007.8 mb 0.01 in0.3 mm 0.12 in3.0 mm 0.01 in0.3 mm
06:45 AM 45.3°F7.4°C 42.8°F6.0°C 91% Calm Calm -- 29.77 in1008.1 mb 0.01 in0.3 mm 0.00 in0.0 mm 0.01 in0.3 mm
06:50 AM 45.3°F7.4°C 42.8°F6.0°C 91% Calm Calm -- 29.77 in1008.1 mb 0.01 in0.3 mm 0.00 in0.0 mm 0.01 in0.3 mm
06:55 AM 45.4°F7.4°C 42.9°F6.1°C 91% Calm Calm 0.7 mph1.1 kmh 29.77 in1008.1 mb 0.01 in0.3 mm 0.00 in0.0 mm 0.01 in0.3 mm
07:00 AM 45.5°F7.5°C 43.0°F6.1°C 91% 0.3 mph 0.5 kmh 1.6 mph2.6 kmh 29.77 in1008.1 mb 0.01 in0.3 mm 0.00 in0.0 mm 0.01 in0.3 mm
07:05 AM 45.5°F7.5°C 43.0°F6.1°C 91% 0.7 mph 1.1 kmh 1.6 mph2.6 kmh 29.77 in1008.1 mb 0.01 in0.3 mm 0.00 in0.0 mm 0.01 in0.3 mm
07:10 AM 45.6°F7.6°C 43.1°F6.2°C 91% 0.3 mph 0.5 kmh 1.6 mph2.6 kmh 29.77 in1008.1 mb 0.01 in0.3 mm 0.00 in0.0 mm 0.02 in0.5 mm
07:15 AM 45.7°F7.6°C 43.2°F6.2°C 91% 0.6 mph 1.0 kmh 1.6 mph2.6 kmh 29.77 in1008.1 mb 0.02 in0.5 mm 0.12 in3.0 mm 0.02 in0.5 mm
07:20 AM 45.7°F7.6°C 43.2°F6.2°C 91% 0.5 mph NNE0.8 kmh NNE 1.6 mph2.6 kmh 29.77 in1008.1 mb 0.02 in0.5 mm 0.00 in0.0 mm 0.02 in0.5 mm
07:25 AM 45.7°F7.6°C 43.2°F6.2°C 91% 0.7 mph N1.1 kmh N 1.6 mph2.6 kmh 29.77 in1008.1 mb 0.02 in0.5 mm 0.00 in0.0 mm 0.03 in0.8 mm
07:30 AM 45.7°F7.6°C 42.8°F6.0°C 90% 0.3 mph 0.5 kmh 1.6 mph2.6 kmh 29.77 in1008.1 mb 0.03 in0.8 mm 0.12 in3.0 mm 0.04 in1.0 mm
07:35 AM 45.9°F7.7°C 42.2°F5.7°C 87% Calm Calm 0.7 mph1.1 kmh 29.77 in1008.1 mb 0.04 in1.0 mm 0.12 in3.0 mm 0.04 in1.0 mm
07:40 AM 45.9°F7.7°C 42.2°F5.7°C 87% Calm Calm -- 29.77 in1008.1 mb 0.04 in1.0 mm 0.00 in0.0 mm 0.04 in1.0 mm
07:45 AM 45.9°F7.7°C 42.2°F5.7°C 87% 0.2 mph 0.3 kmh 1.6 mph2.6 kmh 29.76 in1007.8 mb 0.04 in1.0 mm 0.00 in0.0 mm 0.05 in1.3 mm
07:50 AM 45.9°F7.7°C 42.2°F5.7°C 87% 0.5 mph 0.8 kmh 1.6 mph2.6 kmh 29.77 in1008.1 mb 0.05 in1.3 mm 0.12 in3.0 mm 0.05 in1.3 mm
07:55 AM 45.9°F7.7°C 42.2°F5.7°C 87% 0.4 mph NW0.6 kmh NW 1.6 mph2.6 kmh 29.77 in1008.1 mb 0.05 in1.3 mm 0.00 in0.0 mm 0.06 in1.5 mm
08:00 AM 45.9°F7.7°C 42.3°F5.7°C 87% Calm Calm 0.7 mph1.1 kmh 29.77 in1008.1 mb 0.05 in1.3 mm 0.00 in0.0 mm 0.06 in1.5 mm
08:05 AM 46.0°F7.8°C 42.4°F5.8°C 87% Calm Calm 0.7 mph1.1 kmh 29.77 in1008.1 mb 0.05 in1.3 mm 0.00 in0.0 mm 0.06 in1.5 mm
08:10 AM 46.0°F7.8°C 42.4°F5.8°C 87% Calm Calm 0.7 mph1.1 kmh 29.77 in1008.1 mb 0.05 in1.3 mm 0.00 in0.0 mm 0.07 in1.8 mm
08:15 AM 46.0°F7.8°C 42.4°F5.8°C 87% 0.1 mph SW0.2 kmh SW 1.6 mph2.6 kmh 29.77 in1008.1 mb 0.05 in1.3 mm 0.00 in0.0 mm 0.07 in1.8 mm
08:20 AM 46.2°F7.9°C 42.5°F5.8°C 87% 0.7 mph SW1.1 kmh SW 1.6 mph2.6 kmh 29.77 in1008.1 mb 0.04 in1.0 mm 0.00 in0.0 mm 0.07 in1.8 mm
08:25 AM 46.2°F7.9°C 42.6°F5.9°C 87% 1.1 mph SW1.8 kmh SW 2.2 mph3.5 kmh 29.77 in1008.1 mb 0.04 in1.0 mm 0.00 in0.0 mm 0.07 in1.8 mm
08:30 AM 46.2°F7.9°C 42.6°F5.9°C 87% 0.3 mph SW0.5 kmh SW 1.6 mph2.6 kmh 29.77 in1008.1 mb 0.03 in0.8 mm 0.00 in0.0 mm 0.07 in1.8 mm
08:35 AM 46.4°F8.0°C 42.7°F5.9°C 87% Calm Calm 0.7 mph1.1 kmh 29.77 in1008.1 mb 0.03 in0.8 mm 0.00 in0.0 mm 0.07 in1.8 mm
08:40 AM 46.4°F8.0°C 42.7°F5.9°C 87% Calm Calm 0.7 mph1.1 kmh 29.77 in1008.1 mb 0.02 in0.5 mm 0.00 in0.0 mm 0.07 in1.8 mm
08:45 AM 46.6°F8.1°C 42.9°F6.1°C 87% Calm Calm 0.7 mph1.1 kmh 29.76 in1007.8 mb 0.02 in0.5 mm 0.00 in0.0 mm 0.07 in1.8 mm
08:50 AM 46.7°F8.2°C 43.0°F6.1°C 87% 0.1 mph E0.2 kmh E 1.6 mph2.6 kmh 29.76 in1007.8 mb 0.01 in0.3 mm 0.00 in0.0 mm 0.07 in1.8 mm
08:55 AM 46.8°F8.2°C 43.4°F6.3°C 88% 0.1 mph 0.2 kmh 1.6 mph2.6 kmh 29.76 in1007.8 mb 0.01 in0.3 mm 0.00 in0.0 mm 0.07 in1.8 mm
09:00 AM 46.9°F8.3°C 43.6°F6.4°C 88% 0.1 mph 0.2 kmh 1.6 mph2.6 kmh 29.77 in1008.1 mb 0.00 in0.0 mm 0.00 in0.0 mm 0.07 in1.8 mm
09:05 AM 46.9°F8.3°C 43.6°F6.4°C 88% Calm Calm 1.6 mph2.6 kmh 29.76 in1007.8 mb 0.01 in0.3 mm 0.12 in3.0 mm 0.07 in1.8 mm
09:10 AM 47.1°F8.4°C 43.7°F6.5°C 88% Calm Calm 0.7 mph1.1 kmh 29.76 in1007.8 mb 0.00 in0.0 mm 0.00 in0.0 mm 0.07 in1.8 mm
09:15 AM 47.1°F8.4°C 43.8°F6.6°C 88% Calm Calm 0.7 mph1.1 kmh 29.76 in1007.8 mb 0.00 in0.0 mm 0.00 in0.0 mm 0.07 in1.8 mm
09:20 AM 47.1°F8.4°C 43.8°F6.6°C 88% 0.7 mph SW1.1 kmh SW 1.6 mph2.6 kmh 29.76 in1007.8 mb 0.00 in0.0 mm 0.00 in0.0 mm 0.07 in1.8 mm
09:25 AM 47.1°F8.4°C 43.8°F6.6°C 88% 1.6 mph SW2.6 kmh SW 2.2 mph3.5 kmh 29.76 in1007.8 mb 0.00 in0.0 mm 0.00 in0.0 mm 0.07 in1.8 mm
09:30 AM 47.1°F8.4°C 43.8°F6.6°C 88% 1.1 mph SW1.8 kmh SW 2.2 mph3.5 kmh 29.77 in1008.1 mb 0.00 in0.0 mm 0.00 in0.0 mm 0.07 in1.8 mm
09:35 AM 47.1°F8.4°C 43.8°F6.6°C 88% 0.9 mph SW1.4 kmh SW 2.2 mph3.5 kmh 29.77 in1008.1 mb 0.00 in0.0 mm 0.00 in0.0 mm 0.07 in1.8 mm
09:40 AM 47.1°F8.4°C 43.8°F6.6°C 88% 0.7 mph SW1.1 kmh SW 1.6 mph2.6 kmh 29.77 in1008.1 mb 0.00 in0.0 mm 0.00 in0.0 mm 0.07 in1.8 mm
09:45 AM 47.1°F8.4°C 43.8°F6.6°C 88% 0.6 mph SW1.0 kmh SW 1.6 mph2.6 kmh 29.77 in1008.1 mb 0.00 in0.0 mm 0.00 in0.0 mm 0.07 in1.8 mm
09:50 AM 47.1°F8.4°C 43.8°F6.6°C 88% 0.3 mph SW0.5 kmh SW 1.6 mph2.6 kmh 29.77 in1008.1 mb 0.00 in0.0 mm 0.00 in0.0 mm 0.07 in1.8 mm
09:55 AM 47.1°F8.4°C 43.8°F6.6°C 88% 0.8 mph SW1.3 kmh SW 2.2 mph3.5 kmh 29.77 in1008.1 mb 0.01 in0.3 mm 0.12 in3.0 mm 0.07 in1.8 mm
10:00 AM 47.3°F8.5°C 43.9°F6.6°C 88% 1.4 mph SSW2.3 kmh SSW 2.2 mph3.5 kmh 29.77 in1008.1 mb 0.01 in0.3 mm 0.00 in0.0 mm 0.07 in1.8 mm
10:05 AM 47.3°F8.5°C 43.9°F6.6°C 88% 1.6 mph SW2.6 kmh SW 1.6 mph2.6 kmh 29.77 in1008.1 mb 0.00 in0.0 mm 0.00 in0.0 mm 0.07 in1.8 mm
10:10 AM 47.3°F8.5°C 43.9°F6.6°C 88% 0.7 mph SW1.1 kmh SW 1.6 mph2.6 kmh 29.77 in1008.1 mb 0.00 in0.0 mm 0.00 in0.0 mm 0.07 in1.8 mm
10:15 AM 47.3°F8.5°C 43.9°F6.6°C 88% Calm Calm 0.7 mph1.1 kmh 29.77 in1008.1 mb 0.00 in0.0 mm 0.00 in0.0 mm 0.07 in1.8 mm
10:20 AM 47.5°F8.6°C 44.1°F6.7°C 88% 0.1 mph S0.2 kmh S 1.6 mph2.6 kmh 29.76 in1007.8 mb 0.00 in0.0 mm 0.00 in0.0 mm 0.07 in1.8 mm
10:25 AM 47.5°F8.6°C 44.1°F6.7°C 88% Calm Calm 0.7 mph1.1 kmh 29.76 in1007.8 mb 0.00 in0.0 mm 0.00 in0.0 mm 0.07 in1.8 mm
10:30 AM 47.7°F8.7°C 44.3°F6.8°C 88% 1.2 mph SW1.9 kmh SW 2.2 mph3.5 kmh 29.76 in1007.8 mb 0.00 in0.0 mm 0.00 in0.0 mm 0.07 in1.8 mm
10:35 AM 47.8°F8.8°C 44.4°F6.9°C 88% 0.9 mph SW1.4 kmh SW 2.2 mph3.5 kmh 29.76 in1007.8 mb 0.00 in0.0 mm 0.00 in0.0 mm 0.07 in1.8 mm
10:40 AM 47.8°F8.8°C 44.8°F7.1°C 89% 0.9 mph SW1.4 kmh SW 2.2 mph3.5 kmh 29.76 in1007.8 mb 0.00 in0.0 mm 0.00 in0.0 mm 0.07 in1.8 mm
10:45 AM 48.0°F8.9°C 44.9°F7.2°C 89% 0.7 mph SW1.1 kmh SW 2.2 mph3.5 kmh 29.76 in1007.8 mb 0.00 in0.0 mm 0.00 in0.0 mm 0.07 in1.8 mm
10:50 AM 48.0°F8.9°C 44.9°F7.2°C 89% 0.6 mph WSW1.0 kmh WSW 1.6 mph2.6 kmh 29.76 in1007.8 mb 0.00 in0.0 mm 0.00 in0.0 mm 0.07 in1.8 mm
10:55 AM 48.1°F8.9°C 45.0°F7.2°C 89% 1.2 mph SW1.9 kmh SW 2.2 mph3.5 kmh 29.76 in1007.8 mb 0.00 in0.0 mm 0.00 in0.0 mm 0.07 in1.8 mm
11:00 AM 48.2°F9.0°C 45.1°F7.3°C 89% 0.7 mph SW1.1 kmh SW 1.6 mph2.6 kmh 29.76 in1007.8 mb 0.00 in0.0 mm 0.00 in0.0 mm 0.07 in1.8 mm
11:05 AM 48.2°F9.0°C 45.1°F7.3°C 89% 0.2 mph SW0.3 kmh SW 1.6 mph2.6 kmh 29.76 in1007.8 mb 0.00 in0.0 mm 0.00 in0.0 mm 0.07 in1.8 mm
11:10 AM 48.2°F9.0°C 45.1°F7.3°C 89% Calm Calm -- 29.76 in1007.8 mb 0.00 in0.0 mm 0.00 in0.0 mm 0.07 in1.8 mm
11:15 AM 48.2°F9.0°C 45.1°F7.3°C 89% Calm Calm 0.7 mph1.1 kmh 29.76 in1007.8 mb 0.00 in0.0 mm 0.00 in0.0 mm 0.07 in1.8 mm
11:20 AM 48.2°F9.0°C 45.1°F7.3°C 89% 0.2 mph SSE0.3 kmh SSE 1.6 mph2.6 kmh 29.75 in1007.5 mb 0.00 in0.0 mm 0.00 in0.0 mm 0.08 in2.0 mm
11:25 AM 48.3°F9.1°C 45.2°F7.3°C 89% Calm Calm 0.7 mph1.1 kmh 29.75 in1007.5 mb 0.00 in0.0 mm 0.00 in0.0 mm 0.08 in2.0 mm
11:30 AM 48.4°F9.1°C 45.3°F7.4°C 89% 0.5 mph NW0.8 kmh NW 1.6 mph2.6 kmh 29.75 in1007.5 mb 0.00 in0.0 mm 0.00 in0.0 mm 0.08 in2.0 mm
11:35 AM 48.5°F9.2°C 45.4°F7.4°C 89% 1.0 mph W1.6 kmh W 2.2 mph3.5 kmh 29.75 in1007.5 mb 0.00 in0.0 mm 0.00 in0.0 mm 0.08 in2.0 mm
11:40 AM 48.6°F9.2°C 45.5°F7.5°C 89% 0.6 mph W1.0 kmh W 1.6 mph2.6 kmh 29.75 in1007.5 mb 0.00 in0.0 mm 0.00 in0.0 mm 0.08 in2.0 mm
11:45 AM 48.6°F9.2°C 45.5°F7.5°C 89% 1.5 mph WNW2.4 kmh WNW 3.1 mph5.0 kmh 29.75 in1007.5 mb 0.00 in0.0 mm 0.00 in0.0 mm 0.08 in2.0 mm
11:50 AM 48.6°F9.2°C 45.5°F7.5°C 89% 2.0 mph W3.2 kmh W 3.1 mph5.0 kmh 29.75 in1007.5 mb 0.00 in0.0 mm 0.00 in0.0 mm 0.08 in2.0 mm
11:55 AM 48.6°F9.2°C 45.5°F7.5°C 89% 2.0 mph W3.2 kmh W 3.8 mph6.1 kmh 29.75 in1007.5 mb 0.00 in0.0 mm 0.00 in0.0 mm 0.08 in2.0 mm
12:00 PM 48.6°F9.2°C 45.5°F7.5°C 89% 1.1 mph WSW1.8 kmh WSW 2.2 mph3.5 kmh 29.75 in1007.5 mb 0.00 in0.0 mm 0.00 in0.0 mm 0.08 in2.0 mm
12:05 PM 48.6°F9.2°C 45.5°F7.5°C 89% Calm Calm 0.7 mph1.1 kmh 29.75 in1007.5 mb 0.00 in0.0 mm 0.00 in0.0 mm 0.08 in2.0 mm
12:10 PM 48.6°F9.2°C 45.5°F7.5°C 89% Calm Calm 0.7 mph1.1 kmh 29.75 in1007.5 mb 0.00 in0.0 mm 0.00 in0.0 mm 0.08 in2.0 mm
12:15 PM 48.6°F9.2°C 45.5°F7.5°C 89% Calm Calm 0.7 mph1.1 kmh 29.75 in1007.5 mb 0.00 in0.0 mm 0.00 in0.0 mm 0.08 in2.0 mm
12:20 PM 48.6°F9.2°C 45.5°F7.5°C 89% 0.3 mph NW0.5 kmh NW 1.6 mph2.6 kmh 29.75 in1007.5 mb 0.00 in0.0 mm 0.00 in0.0 mm 0.08 in2.0 mm
12:25 PM 48.7°F9.3°C 45.6°F7.6°C 89% 0.2 mph SW0.3 kmh SW 1.6 mph2.6 kmh 29.75 in1007.5 mb 0.00 in0.0 mm 0.00 in0.0 mm 0.08 in2.0 mm
12:30 PM 48.7°F9.3°C 45.6°F7.6°C 89% 0.5 mph SW0.8 kmh SW 1.6 mph2.6 kmh 29.75 in1007.5 mb 0.00 in0.0 mm 0.00 in0.0 mm 0.08 in2.0 mm
12:35 PM 48.7°F9.3°C 45.6°F7.6°C 89% Calm Calm 0.7 mph1.1 kmh 29.75 in1007.5 mb 0.00 in0.0 mm 0.00 in0.0 mm 0.08 in2.0 mm
12:40 PM 48.7°F9.3°C 45.6°F7.6°C 89% 0.6 mph ENE1.0 kmh ENE 1.6 mph2.6 kmh 29.75 in1007.5 mb 0.00 in0.0 mm 0.00 in0.0 mm 0.08 in2.0 mm
12:45 PM 48.9°F9.4°C 45.8°F7.7°C 89% Calm Calm 0.7 mph1.1 kmh 29.75 in1007.5 mb 0.00 in0.0 mm 0.00 in0.0 mm 0.08 in2.0 mm
12:50 PM 48.9°F9.4°C 45.8°F7.7°C 89% Calm Calm 0.7 mph1.1 kmh 29.74 in1007.1 mb 0.00 in0.0 mm 0.00 in0.0 mm 0.08 in2.0 mm
12:55 PM 48.9°F9.4°C 45.8°F7.7°C 89% 0.2 mph 0.3 kmh 1.6 mph2.6 kmh 29.74 in1007.1 mb 0.00 in0.0 mm 0.00 in0.0 mm 0.08 in2.0 mm
01:00 PM 48.9°F9.4°C 45.8°F7.7°C 89% 0.3 mph 0.5 kmh 1.6 mph2.6 kmh 29.75 in1007.5 mb 0.00 in0.0 mm 0.00 in0.0 mm 0.08 in2.0 mm
01:05 PM 48.9°F9.4°C 45.8°F7.7°C 89% Calm Calm 0.7 mph1.1 kmh 29.74 in1007.1 mb 0.00 in0.0 mm 0.00 in0.0 mm 0.08 in2.0 mm
01:10 PM 48.9°F9.4°C 45.8°F7.7°C 89% 0.2 mph S0.3 kmh S 0.7 mph1.1 kmh 29.75 in1007.5 mb 0.00 in0.0 mm 0.00 in0.0 mm 0.08 in2.0 mm
01:15 PM 49.0°F9.4°C 45.9°F7.7°C 89% 0.3 mph W0.5 kmh W 1.6 mph2.6 kmh 29.74 in1007.1 mb 0.00 in0.0 mm 0.00 in0.0 mm 0.08 in2.0 mm
01:20 PM 49.1°F9.5°C 46.1°F7.8°C 89% 0.2 mph W0.3 kmh W 1.6 mph2.6 kmh 29.74 in1007.1 mb 0.00 in0.0 mm 0.00 in0.0 mm 0.08 in2.0 mm
01:25 PM 49.1°F9.5°C 46.3°F7.9°C 90% 0.1 mph W0.2 kmh W 0.7 mph1.1 kmh 29.75 in1007.5 mb 0.00 in0.0 mm 0.00 in0.0 mm 0.08 in2.0 mm
01:30 PM 49.3°F9.6°C 46.5°F8.1°C 90% 0.8 mph SW1.3 kmh SW 2.2 mph3.5 kmh 29.75 in1007.5 mb 0.00 in0.0 mm 0.00 in0.0 mm 0.08 in2.0 mm
01:35 PM 49.1°F9.5°C 46.2°F7.9°C 90% 0.5 mph SE0.8 kmh SE 2.2 mph3.5 kmh 29.75 in1007.5 mb 0.00 in0.0 mm 0.00 in0.0 mm 0.08 in2.0 mm
01:40 PM 49.3°F9.6°C 46.5°F8.1°C 90% 1.6 mph SE2.6 kmh SE 2.2 mph3.5 kmh 29.75 in1007.5 mb 0.00 in0.0 mm 0.00 in0.0 mm 0.08 in2.0 mm
01:45 PM 49.3°F9.6°C 46.5°F8.1°C 90% 1.3 mph S2.1 kmh S 2.2 mph3.5 kmh 29.75 in1007.5 mb 0.00 in0.0 mm 0.00 in0.0 mm 0.08 in2.0 mm
01:50 PM 49.3°F9.6°C 46.5°F8.1°C 90% 1.2 mph SSW1.9 kmh SSW 2.2 mph3.5 kmh 29.75 in1007.5 mb 0.00 in0.0 mm 0.00 in0.0 mm 0.08 in2.0 mm
01:55 PM 49.3°F9.6°C 46.3°F7.9°C 89% 1.1 mph SW1.8 kmh SW 2.2 mph3.5 kmh 29.75 in1007.5 mb 0.00 in0.0 mm 0.00 in0.0 mm 0.08 in2.0 mm
02:00 PM 49.2°F9.6°C 46.1°F7.8°C 89% 1.2 mph S1.9 kmh S 2.2 mph3.5 kmh 29.75 in1007.5 mb 0.01 in0.3 mm 0.01 in0.3 mm 0.09 in2.3 mm
02:05 PM 49.1°F9.5°C 46.0°F7.8°C 89% 0.7 mph SW1.1 kmh SW 1.6 mph2.6 kmh 29.75 in1007.5 mb 0.01 in0.3 mm 0.00 in0.0 mm 0.09 in2.3 mm
02:10 PM 49.1°F9.5°C 46.0°F7.8°C 89% 1.7 mph S2.7 kmh S 3.8 mph6.1 kmh 29.75 in1007.5 mb 0.03 in0.8 mm 0.24 in6.1 mm 0.11 in2.8 mm
02:15 PM 49.1°F9.5°C 46.0°F7.8°C 89% 2.2 mph S3.5 kmh S 3.8 mph6.1 kmh 29.75 in1007.5 mb 0.03 in0.8 mm 0.00 in0.0 mm 0.11 in2.8 mm
02:20 PM 49.1°F9.5°C 46.0°F7.8°C 89% 1.8 mph S2.9 kmh S 3.8 mph6.1 kmh 29.75 in1007.5 mb 0.03 in0.8 mm 0.00 in0.0 mm 0.11 in2.8 mm
02:25 PM 49.2°F9.6°C 46.1°F7.8°C 89% 2.1 mph SW3.4 kmh SW 3.1 mph5.0 kmh 29.75 in1007.5 mb 0.04 in1.0 mm 0.12 in3.0 mm 0.11 in2.8 mm
02:30 PM 49.3°F9.6°C 46.2°F7.9°C 89% 1.9 mph SW3.1 kmh SW 3.1 mph5.0 kmh 29.75 in1007.5 mb 0.04 in1.0 mm 0.00 in0.0 mm 0.11 in2.8 mm
02:35 PM 49.5°F9.7°C 46.4°F8.0°C 89% 1.5 mph SW2.4 kmh SW 3.1 mph5.0 kmh 29.75 in1007.5 mb 0.04 in1.0 mm 0.00 in0.0 mm 0.11 in2.8 mm
02:40 PM 49.7°F9.8°C 46.9°F8.3°C 90% 1.9 mph SW3.1 kmh SW 3.8 mph6.1 kmh 29.75 in1007.5 mb 0.03 in0.8 mm 0.00 in0.0 mm 0.11 in2.8 mm
02:45 PM 49.8°F9.9°C 47.0°F8.3°C 90% 1.6 mph SW2.6 kmh SW 3.1 mph5.0 kmh 29.75 in1007.5 mb 0.03 in0.8 mm 0.00 in0.0 mm 0.11 in2.8 mm
02:50 PM 50.1°F10.1°C 47.3°F8.5°C 90% 1.0 mph SW1.6 kmh SW 2.2 mph3.5 kmh 29.75 in1007.5 mb 0.03 in0.8 mm 0.00 in0.0 mm 0.11 in2.8 mm
02:55 PM 50.4°F10.2°C 47.6°F8.7°C 90% 1.3 mph ENE2.1 kmh ENE 2.2 mph3.5 kmh 29.76 in1007.8 mb 0.03 in0.8 mm 0.00 in0.0 mm 0.11 in2.8 mm
03:00 PM 50.6°F10.3°C 47.8°F8.8°C 90% 1.1 mph NW1.8 kmh NW 3.1 mph5.0 kmh 29.76 in1007.8 mb 0.03 in0.8 mm 0.00 in0.0 mm 0.11 in2.8 mm
03:05 PM 50.7°F10.4°C 47.9°F8.8°C 90% 3.2 mph WSW5.1 kmh WSW 4.5 mph7.2 kmh 29.76 in1007.8 mb 0.03 in0.8 mm 0.00 in0.0 mm 0.11 in2.8 mm
03:10 PM 50.7°F10.4°C 47.8°F8.8°C 90% 4.1 mph SW6.6 kmh SW 6.0 mph9.7 kmh 29.76 in1007.8 mb 0.00 in0.0 mm 0.00 in0.0 mm 0.11 in2.8 mm
03:15 PM 50.4°F10.2°C 47.4°F8.6°C 89% 3.8 mph SW6.1 kmh SW 5.4 mph8.7 kmh 29.77 in1008.1 mb 0.00 in0.0 mm 0.00 in0.0 mm 0.11 in2.8 mm
03:20 PM 50.2°F10.1°C 47.1°F8.4°C 89% 2.3 mph SW3.7 kmh SW 3.8 mph6.1 kmh 29.77 in1008.1 mb 0.00 in0.0 mm 0.00 in0.0 mm 0.11 in2.8 mm
03:25 PM 50.2°F10.1°C 47.1°F8.4°C 89% 2.0 mph SSW3.2 kmh SSW 3.1 mph5.0 kmh 29.76 in1007.8 mb 0.00 in0.0 mm 0.00 in0.0 mm 0.11 in2.8 mm
03:30 PM 50.2°F10.1°C 47.1°F8.4°C 89% 2.3 mph S3.7 kmh S 3.8 mph6.1 kmh 29.76 in1007.8 mb 0.00 in0.0 mm 0.00 in0.0 mm 0.11 in2.8 mm
03:35 PM 50.0°F10.0°C 46.8°F8.2°C 89% 4.7 mph S7.6 kmh S 6.9 mph11.1 kmh 29.77 in1008.1 mb 0.00 in0.0 mm 0.00 in0.0 mm 0.11 in2.8 mm
03:40 PM 49.8°F9.9°C 46.4°F8.0°C 88% 4.3 mph S6.9 kmh S 6.0 mph9.7 kmh 29.77 in1008.1 mb 0.00 in0.0 mm 0.00 in0.0 mm 0.11 in2.8 mm
03:45 PM 49.6°F9.8°C 46.2°F7.9°C 88% 2.5 mph SW4.0 kmh SW 3.8 mph6.1 kmh 29.77 in1008.1 mb 0.00 in0.0 mm 0.00 in0.0 mm 0.11 in2.8 mm
03:50 PM 49.6°F9.8°C 46.0°F7.8°C 87% 2.2 mph SW3.5 kmh SW 3.1 mph5.0 kmh 29.77 in1008.1 mb 0.00 in0.0 mm 0.00 in0.0 mm 0.11 in2.8 mm
03:55 PM 49.5°F9.7°C 45.8°F7.7°C 87% 3.7 mph SW6.0 kmh SW 4.5 mph7.2 kmh 29.77 in1008.1 mb 0.00 in0.0 mm 0.00 in0.0 mm 0.11 in2.8 mm
04:00 PM 49.3°F9.6°C 45.6°F7.6°C 87% 4.0 mph SSW6.4 kmh SSW 5.4 mph8.7 kmh 29.77 in1008.1 mb 0.00 in0.0 mm 0.00 in0.0 mm 0.11 in2.8 mm
04:05 PM 49.3°F9.6°C 45.6°F7.6°C 87% 3.8 mph SW6.1 kmh SW 4.5 mph7.2 kmh 29.78 in1008.5 mb 0.00 in0.0 mm 0.00 in0.0 mm 0.11 in2.8 mm
04:10 PM 49.3°F9.6°C 45.6°F7.6°C 87% 2.7 mph SW4.3 kmh SW 4.5 mph7.2 kmh 29.78 in1008.5 mb 0.00 in0.0 mm 0.00 in0.0 mm 0.11 in2.8 mm
04:15 PM 49.2°F9.6°C 45.5°F7.5°C 87% 3.3 mph SSW5.3 kmh SSW 5.4 mph8.7 kmh 29.78 in1008.5 mb 0.00 in0.0 mm 0.00 in0.0 mm 0.11 in2.8 mm
04:20 PM 49.1°F9.5°C 45.4°F7.4°C 87% 3.6 mph SSW5.8 kmh SSW 5.4 mph8.7 kmh 29.78 in1008.5 mb 0.00 in0.0 mm 0.00 in0.0 mm 0.11 in2.8 mm
04:25 PM 49.1°F9.5°C 45.4°F7.4°C 87% 3.9 mph S6.3 kmh S 6.0 mph9.7 kmh 29.78 in1008.5 mb 0.00 in0.0 mm 0.00 in0.0 mm 0.11 in2.8 mm
04:30 PM 48.9°F9.4°C 45.2°F7.3°C 87% 2.6 mph S4.2 kmh S 3.8 mph6.1 kmh 29.78 in1008.5 mb 0.00 in0.0 mm 0.00 in0.0 mm 0.11 in2.8 mm
04:35 PM 48.9°F9.4°C 45.2°F7.3°C 87% 1.9 mph SW3.1 kmh SW 3.1 mph5.0 kmh 29.78 in1008.5 mb 0.00 in0.0 mm 0.00 in0.0 mm 0.11 in2.8 mm
04:40 PM 48.8°F9.3°C 45.1°F7.3°C 87% 2.2 mph WSW3.5 kmh WSW 3.1 mph5.0 kmh 29.79 in1008.8 mb 0.00 in0.0 mm 0.00 in0.0 mm 0.11 in2.8 mm
04:45 PM 48.7°F9.3°C 45.0°F7.2°C 87% 2.0 mph SW3.2 kmh SW 3.1 mph5.0 kmh 29.79 in1008.8 mb 0.00 in0.0 mm 0.00 in0.0 mm 0.11 in2.8 mm
04:50 PM 48.6°F9.2°C 44.8°F7.1°C 86% 1.4 mph SW2.3 kmh SW 2.2 mph3.5 kmh 29.80 in1009.1 mb 0.00 in0.0 mm 0.00 in0.0 mm 0.11 in2.8 mm
04:55 PM 48.6°F9.2°C 44.9°F7.2°C 87% 1.4 mph SW2.3 kmh SW 2.2 mph3.5 kmh 29.80 in1009.1 mb 0.00 in0.0 mm 0.00 in0.0 mm 0.11 in2.8 mm
05:00 PM 48.6°F9.2°C 44.9°F7.2°C 87% 0.8 mph W1.3 kmh W 2.2 mph3.5 kmh 29.80 in1009.1 mb 0.00 in0.0 mm 0.00 in0.0 mm 0.11 in2.8 mm
05:05 PM 48.6°F9.2°C 44.9°F7.2°C 87% 0.3 mph SSW0.5 kmh SSW 1.6 mph2.6 kmh 29.80 in1009.1 mb 0.00 in0.0 mm 0.00 in0.0 mm 0.11 in2.8 mm
05:10 PM 48.6°F9.2°C 44.9°F7.2°C 87% 0.1 mph SE0.2 kmh SE 1.6 mph2.6 kmh 29.80 in1009.1 mb 0.00 in0.0 mm 0.00 in0.0 mm 0.11 in2.8 mm
05:15 PM 48.6°F9.2°C 44.9°F7.2°C 87% 0.1 mph 0.2 kmh 1.6 mph2.6 kmh 29.80 in1009.1 mb 0.00 in0.0 mm 0.00 in0.0 mm 0.11 in2.8 mm
05:20 PM 48.6°F9.2°C 44.9°F7.2°C 87% 0.5 mph W0.8 kmh W 1.6 mph2.6 kmh 29.80 in1009.1 mb 0.00 in0.0 mm 0.00 in0.0 mm 0.11 in2.8 mm
05:25 PM 48.6°F9.2°C 44.9°F7.2°C 87% 1.4 mph SW2.3 kmh SW 2.2 mph3.5 kmh 29.80 in1009.1 mb 0.00 in0.0 mm 0.00 in0.0 mm 0.11 in2.8 mm
05:30 PM 48.6°F9.2°C 44.9°F7.2°C 87% 0.9 mph SSW1.4 kmh SSW 2.2 mph3.5 kmh 29.80 in1009.1 mb 0.00 in0.0 mm 0.00 in0.0 mm 0.11 in2.8 mm
05:35 PM 48.6°F9.2°C 44.9°F7.2°C 87% 1.0 mph SE1.6 kmh SE 2.2 mph3.5 kmh 29.80 in1009.1 mb 0.00 in0.0 mm 0.00 in0.0 mm 0.11 in2.8 mm
05:40 PM 48.6°F9.2°C 44.9°F7.2°C 87% 1.6 mph SE2.6 kmh SE 3.1 mph5.0 kmh 29.81 in1009.5 mb 0.00 in0.0 mm 0.00 in0.0 mm 0.11 in2.8 mm
05:45 PM 48.6°F9.2°C 44.9°F7.2°C 87% 3.1 mph SSE5.0 kmh SSE 4.5 mph7.2 kmh 29.81 in1009.5 mb 0.00 in0.0 mm 0.00 in0.0 mm 0.11 in2.8 mm
05:50 PM 48.6°F9.2°C 44.9°F7.2°C 87% 2.2 mph SE3.5 kmh SE 3.8 mph6.1 kmh 29.81 in1009.5 mb 0.00 in0.0 mm 0.00 in0.0 mm 0.11 in2.8 mm
05:55 PM 48.6°F9.2°C 44.9°F7.2°C 87% 2.6 mph ESE4.2 kmh ESE 4.5 mph7.2 kmh 29.81 in1009.5 mb 0.00 in0.0 mm 0.00 in0.0 mm 0.11 in2.8 mm
06:00 PM 48.4°F9.1°C 44.7°F7.1°C 87% 2.5 mph SSE4.0 kmh SSE 3.8 mph6.1 kmh 29.81 in1009.5 mb 0.00 in0.0 mm 0.00 in0.0 mm 0.11 in2.8 mm
06:05 PM 48.4°F9.1°C 44.7°F7.1°C 87% 2.2 mph SSW3.5 kmh SSW 3.1 mph5.0 kmh 29.81 in1009.5 mb 0.00 in0.0 mm 0.00 in0.0 mm 0.11 in2.8 mm
06:10 PM 48.3°F9.1°C 44.6°F7.0°C 87% 1.5 mph S2.4 kmh S 3.1 mph5.0 kmh 29.81 in1009.5 mb 0.00 in0.0 mm 0.00 in0.0 mm 0.11 in2.8 mm
06:15 PM 48.2°F9.0°C 44.3°F6.8°C 86% 0.8 mph ESE1.3 kmh ESE 2.2 mph3.5 kmh 29.82 in1009.8 mb 0.00 in0.0 mm 0.00 in0.0 mm 0.11 in2.8 mm
06:20 PM 48.0°F8.9°C 44.0°F6.7°C 86% 0.7 mph NE1.1 kmh NE 2.2 mph3.5 kmh 29.82 in1009.8 mb 0.00 in0.0 mm 0.00 in0.0 mm 0.11 in2.8 mm
06:25 PM 47.9°F8.8°C 43.9°F6.6°C 86% Calm Calm 0.7 mph1.1 kmh 29.82 in1009.8 mb 0.00 in0.0 mm 0.00 in0.0 mm 0.11 in2.8 mm
06:30 PM 47.8°F8.8°C 43.9°F6.6°C 86% 0.1 mph E0.2 kmh E 1.6 mph2.6 kmh 29.83 in1010.2 mb 0.00 in0.0 mm 0.00 in0.0 mm 0.11 in2.8 mm
06:35 PM 47.6°F8.7°C 43.6°F6.4°C 86% 1.3 mph NE2.1 kmh NE 2.2 mph3.5 kmh 29.83 in1010.2 mb 0.00 in0.0 mm 0.00 in0.0 mm 0.11 in2.8 mm
06:40 PM 47.2°F8.4°C 43.3°F6.3°C 86% 1.6 mph NNE2.6 kmh NNE 2.2 mph3.5 kmh 29.83 in1010.2 mb 0.00 in0.0 mm 0.00 in0.0 mm 0.11 in2.8 mm
06:45 PM 47.0°F8.3°C 43.0°F6.1°C 86% 0.7 mph N1.1 kmh N 2.2 mph3.5 kmh 29.83 in1010.2 mb 0.00 in0.0 mm 0.00 in0.0 mm 0.11 in2.8 mm
06:50 PM 46.9°F8.3°C 42.7°F5.9°C 85% 0.1 mph SW0.2 kmh SW 1.6 mph2.6 kmh 29.84 in1010.5 mb 0.00 in0.0 mm 0.00 in0.0 mm 0.11 in2.8 mm
06:55 PM 46.6°F8.1°C 42.3°F5.7°C 85% 1.4 mph NE2.3 kmh NE 2.2 mph3.5 kmh 29.84 in1010.5 mb 0.00 in0.0 mm 0.00 in0.0 mm 0.11 in2.8 mm
07:00 PM 46.3°F7.9°C 42.0°F5.6°C 85% 0.5 mph NNW0.8 kmh NNW 1.6 mph2.6 kmh 29.84 in1010.5 mb 0.00 in0.0 mm 0.00 in0.0 mm 0.11 in2.8 mm
07:05 PM 46.1°F7.8°C 41.8°F5.4°C 85% 0.5 mph N0.8 kmh N 2.2 mph3.5 kmh 29.84 in1010.5 mb 0.00 in0.0 mm 0.00 in0.0 mm 0.11 in2.8 mm
07:10 PM 45.8°F7.7°C 42.1°F5.6°C 87% 1.2 mph N1.9 kmh N 2.2 mph3.5 kmh 29.84 in1010.5 mb 0.00 in0.0 mm 0.00 in0.0 mm 0.11 in2.8 mm
07:15 PM 45.6°F7.6°C 42.9°F6.1°C 90% 0.3 mph W0.5 kmh W 1.6 mph2.6 kmh 29.85 in1010.8 mb 0.00 in0.0 mm 0.00 in0.0 mm 0.11 in2.8 mm
07:20 PM 45.5°F7.5°C 42.7°F5.9°C 90% 0.1 mph 0.2 kmh 1.6 mph2.6 kmh 29.85 in1010.8 mb 0.00 in0.0 mm 0.00 in0.0 mm 0.11 in2.8 mm
07:25 PM 45.3°F7.4°C 42.6°F5.9°C 90% 0.2 mph 0.3 kmh 1.6 mph2.6 kmh 29.85 in1010.8 mb 0.00 in0.0 mm 0.00 in0.0 mm 0.11 in2.8 mm
07:30 PM 45.1°F7.3°C 42.4°F5.8°C 90% 1.2 mph NE1.9 kmh NE 3.1 mph5.0 kmh 29.85 in1010.8 mb 0.00 in0.0 mm 0.00 in0.0 mm 0.11 in2.8 mm
07:35 PM 44.9°F7.2°C 42.1°F5.6°C 90% 2.6 mph NE4.2 kmh NE 3.8 mph6.1 kmh 29.86 in1011.2 mb 0.00 in0.0 mm 0.00 in0.0 mm 0.11 in2.8 mm
07:40 PM 44.8°F7.1°C 42.0°F5.6°C 90% 1.5 mph NNE2.4 kmh NNE 3.1 mph5.0 kmh 29.86 in1011.2 mb 0.00 in0.0 mm 0.00 in0.0 mm 0.11 in2.8 mm
07:45 PM 44.8°F7.1°C 42.0°F5.6°C 90% 0.9 mph NNE1.4 kmh NNE 1.6 mph2.6 kmh 29.86 in1011.2 mb 0.00 in0.0 mm 0.00 in0.0 mm 0.11 in2.8 mm
07:50 PM 44.8°F7.1°C 42.0°F5.6°C 90% Calm Calm 1.6 mph2.6 kmh 29.86 in1011.2 mb 0.00 in0.0 mm 0.00 in0.0 mm 0.11 in2.8 mm
07:55 PM 44.6°F7.0°C 41.8°F5.4°C 90% 2.1 mph NE3.4 kmh NE 3.8 mph6.1 kmh 29.86 in1011.2 mb 0.00 in0.0 mm 0.00 in0.0 mm 0.11 in2.8 mm
08:00 PM 44.2°F6.8°C 41.5°F5.3°C 90% 2.5 mph NE4.0 kmh NE 3.8 mph6.1 kmh 29.86 in1011.2 mb 0.00 in0.0 mm 0.00 in0.0 mm 0.11 in2.8 mm
08:05 PM 44.2°F6.8°C 41.5°F5.3°C 90% 1.6 mph NE2.6 kmh NE 2.2 mph3.5 kmh 29.85 in1010.8 mb 0.00 in0.0 mm 0.00 in0.0 mm 0.11 in2.8 mm
08:10 PM 44.0°F6.7°C 41.3°F5.2°C 90% 0.9 mph NE1.4 kmh NE 2.2 mph3.5 kmh 29.86 in1011.2 mb 0.00 in0.0 mm 0.00 in0.0 mm 0.11 in2.8 mm
08:15 PM 43.8°F6.6°C 41.0°F5.0°C 90% 2.2 mph NE3.5 kmh NE 3.1 mph5.0 kmh 29.86 in1011.2 mb 0.00 in0.0 mm 0.00 in0.0 mm 0.11 in2.8 mm
08:20 PM 43.5°F6.4°C 40.8°F4.9°C 90% 1.5 mph N2.4 kmh N 3.1 mph5.0 kmh 29.86 in1011.2 mb 0.00 in0.0 mm 0.00 in0.0 mm 0.11 in2.8 mm
08:25 PM 43.5°F6.4°C 40.7°F4.8°C 90% 0.4 mph NE0.6 kmh NE 1.6 mph2.6 kmh 29.86 in1011.2 mb 0.00 in0.0 mm 0.00 in0.0 mm 0.11 in2.8 mm
08:30 PM 43.3°F6.3°C 40.6°F4.8°C 90% 1.0 mph NE1.6 kmh NE 3.1 mph5.0 kmh 29.86 in1011.2 mb 0.00 in0.0 mm 0.00 in0.0 mm 0.11 in2.8 mm
08:35 PM 43.3°F6.3°C 40.5°F4.7°C 90% 2.5 mph NE4.0 kmh NE 3.8 mph6.1 kmh 29.86 in1011.2 mb 0.00 in0.0 mm 0.00 in0.0 mm 0.11 in2.8 mm
08:40 PM 43.0°F6.1°C 40.2°F4.6°C 90% 1.9 mph NE3.1 kmh NE 3.1 mph5.0 kmh 29.86 in1011.2 mb 0.00 in0.0 mm 0.00 in0.0 mm 0.11 in2.8 mm
08:45 PM 42.7°F5.9°C 40.0°F4.4°C 90% 0.5 mph NW0.8 kmh NW 2.2 mph3.5 kmh 29.87 in1011.5 mb 0.00 in0.0 mm 0.00 in0.0 mm 0.11 in2.8 mm
08:50 PM 42.5°F5.8°C 39.6°F4.2°C 90% 0.2 mph W0.3 kmh W 1.6 mph2.6 kmh 29.87 in1011.5 mb 0.00 in0.0 mm 0.00 in0.0 mm 0.11 in2.8 mm
08:55 PM 42.4°F5.8°C 39.5°F4.2°C 89% 0.2 mph E0.3 kmh E 1.6 mph2.6 kmh 29.87 in1011.5 mb 0.00 in0.0 mm 0.00 in0.0 mm 0.11 in2.8 mm
09:00 PM 42.4°F5.8°C 39.7°F4.3°C 90% 0.2 mph E0.3 kmh E 1.6 mph2.6 kmh 29.87 in1011.5 mb 0.00 in0.0 mm 0.00 in0.0 mm 0.11 in2.8 mm
09:05 PM 42.4°F5.8°C 39.7°F4.3°C 90% 0.7 mph W1.1 kmh W 1.6 mph2.6 kmh 29.88 in1011.9 mb 0.00 in0.0 mm 0.00 in0.0 mm 0.11 in2.8 mm
09:10 PM 42.4°F5.8°C 39.7°F4.3°C 90% 0.2 mph W0.3 kmh W 1.6 mph2.6 kmh 29.88 in1011.9 mb 0.00 in0.0 mm 0.00 in0.0 mm 0.11 in2.8 mm
09:15 PM 42.4°F5.8°C 39.7°F4.3°C 90% Calm Calm 0.7 mph1.1 kmh 29.88 in1011.9 mb 0.00 in0.0 mm 0.00 in0.0 mm 0.11 in2.8 mm
09:20 PM 42.5°F5.8°C 39.7°F4.3°C 90% Calm Calm 0.7 mph1.1 kmh 29.88 in1011.9 mb 0.00 in0.0 mm 0.00 in0.0 mm 0.11 in2.8 mm
09:25 PM 42.6°F5.9°C 39.9°F4.4°C 90% 1.2 mph N1.9 kmh N 2.2 mph3.5 kmh 29.89 in1012.2 mb 0.00 in0.0 mm 0.00 in0.0 mm 0.11 in2.8 mm
09:30 PM 42.8°F6.0°C 40.1°F4.5°C 90% 2.7 mph 4.3 kmh 3.8 mph6.1 kmh 29.89 in1012.2 mb 0.00 in0.0 mm 0.00 in0.0 mm 0.11 in2.8 mm
09:35 PM 43.0°F6.1°C 40.3°F4.6°C 90% 2.7 mph N4.3 kmh N 3.8 mph6.1 kmh 29.89 in1012.2 mb 0.00 in0.0 mm 0.00 in0.0 mm 0.11 in2.8 mm
09:40 PM 43.0°F6.1°C 40.3°F4.6°C 90% 1.4 mph NE2.3 kmh NE 3.8 mph6.1 kmh 29.89 in1012.2 mb 0.00 in0.0 mm 0.00 in0.0 mm 0.11 in2.8 mm
09:45 PM 43.0°F6.1°C 40.3°F4.6°C 90% 0.8 mph NNE1.3 kmh NNE 2.2 mph3.5 kmh 29.89 in1012.2 mb 0.00 in0.0 mm 0.00 in0.0 mm 0.11 in2.8 mm
09:50 PM 42.9°F6.1°C 40.1°F4.5°C 90% 0.4 mph NE0.6 kmh NE 2.2 mph3.5 kmh 29.89 in1012.2 mb 0.00 in0.0 mm 0.00 in0.0 mm 0.11 in2.8 mm
09:55 PM 42.8°F6.0°C 40.1°F4.5°C 90% 1.7 mph NNE2.7 kmh NNE 3.8 mph6.1 kmh 29.89 in1012.2 mb 0.00 in0.0 mm 0.00 in0.0 mm 0.11 in2.8 mm
10:00 PM 42.6°F5.9°C 39.9°F4.4°C 90% 2.9 mph NE4.7 kmh NE 3.8 mph6.1 kmh 29.89 in1012.2 mb 0.00 in0.0 mm 0.00 in0.0 mm 0.11 in2.8 mm
10:05 PM 42.6°F5.9°C 39.9°F4.4°C 90% 2.2 mph 3.5 kmh 3.8 mph6.1 kmh 29.89 in1012.2 mb 0.00 in0.0 mm 0.00 in0.0 mm 0.11 in2.8 mm
10:10 PM 42.5°F5.8°C 39.8°F4.3°C 90% 3.0 mph N4.8 kmh N 4.5 mph7.2 kmh 29.89 in1012.2 mb 0.00 in0.0 mm 0.00 in0.0 mm 0.11 in2.8 mm
10:15 PM 42.4°F5.8°C 39.7°F4.3°C 90% 4.3 mph N6.9 kmh N 6.0 mph9.7 kmh 29.88 in1011.9 mb 0.00 in0.0 mm 0.00 in0.0 mm 0.11 in2.8 mm
10:20 PM 42.4°F5.8°C 39.7°F4.3°C 90% 2.1 mph NNE3.4 kmh NNE 4.5 mph7.2 kmh 29.88 in1011.9 mb 0.00 in0.0 mm 0.00 in0.0 mm 0.11 in2.8 mm
10:25 PM 42.3°F5.7°C 39.6°F4.2°C 90% 1.0 mph ENE1.6 kmh ENE 3.8 mph6.1 kmh 29.88 in1011.9 mb 0.00 in0.0 mm 0.00 in0.0 mm 0.11 in2.8 mm
10:30 PM 42.1°F5.6°C 39.4°F4.1°C 90% 1.9 mph NE3.1 kmh NE 3.1 mph5.0 kmh 29.89 in1012.2 mb 0.00 in0.0 mm 0.00 in0.0 mm 0.11 in2.8 mm
10:35 PM 41.8°F5.4°C 39.1°F3.9°C 90% 2.1 mph NE3.4 kmh NE 3.1 mph5.0 kmh 29.89 in1012.2 mb 0.00 in0.0 mm 0.00 in0.0 mm 0.11 in2.8 mm
10:40 PM 41.6°F5.3°C 38.9°F3.8°C 90% 1.6 mph NE2.6 kmh NE 2.2 mph3.5 kmh 29.88 in1011.9 mb 0.00 in0.0 mm 0.00 in0.0 mm 0.11 in2.8 mm
10:45 PM 41.5°F5.3°C 38.7°F3.7°C 90% 0.1 mph NE0.2 kmh NE 1.6 mph2.6 kmh 29.88 in1011.9 mb 0.00 in0.0 mm 0.00 in0.0 mm 0.11 in2.8 mm
10:50 PM 41.4°F5.2°C 38.7°F3.7°C 90% 1.2 mph NE1.9 kmh NE 3.1 mph5.0 kmh 29.89 in1012.2 mb 0.00 in0.0 mm 0.00 in0.0 mm 0.11 in2.8 mm
10:55 PM 41.4°F5.2°C 38.7°F3.7°C 90% 2.9 mph NE4.7 kmh NE 3.8 mph6.1 kmh 29.89 in1012.2 mb 0.00 in0.0 mm 0.00 in0.0 mm 0.11 in2.8 mm
11:00 PM 41.4°F5.2°C 38.7°F3.7°C 90% 2.4 mph NE3.9 kmh NE 3.8 mph6.1 kmh 29.89 in1012.2 mb 0.00 in0.0 mm 0.00 in0.0 mm 0.11 in2.8 mm
11:05 PM 41.4°F5.2°C 38.7°F3.7°C 90% 1.7 mph 2.7 kmh 3.1 mph5.0 kmh 29.89 in1012.2 mb 0.00 in0.0 mm 0.00 in0.0 mm 0.11 in2.8 mm
11:10 PM 41.5°F5.3°C 38.8°F3.8°C 90% 1.9 mph NNE3.1 kmh NNE 3.1 mph5.0 kmh 29.89 in1012.2 mb 0.00 in0.0 mm 0.00 in0.0 mm 0.11 in2.8 mm
11:15 PM 41.7°F5.4°C 39.0°F3.9°C 90% 3.1 mph NE5.0 kmh NE 3.8 mph6.1 kmh 29.89 in1012.2 mb 0.00 in0.0 mm 0.00 in0.0 mm 0.11 in2.8 mm
11:20 PM 41.8°F5.4°C 39.1°F3.9°C 90% 2.1 mph NE3.4 kmh NE 3.1 mph5.0 kmh 29.90 in1012.5 mb 0.00 in0.0 mm 0.00 in0.0 mm 0.11 in2.8 mm
11:25 PM 41.9°F5.5°C 39.2°F4.0°C 90% 2.5 mph NE4.0 kmh NE 3.8 mph6.1 kmh 29.89 in1012.2 mb 0.00 in0.0 mm 0.00 in0.0 mm 0.11 in2.8 mm
11:30 PM 41.7°F5.4°C 38.9°F3.8°C 90% 2.6 mph NE4.2 kmh NE 3.8 mph6.1 kmh 29.90 in1012.5 mb 0.00 in0.0 mm 0.00 in0.0 mm 0.11 in2.8 mm
11:35 PM 41.5°F5.3°C 38.8°F3.8°C 90% 2.2 mph 3.5 kmh 3.1 mph5.0 kmh 29.90 in1012.5 mb 0.00 in0.0 mm 0.00 in0.0 mm 0.11 in2.8 mm
11:40 PM 41.4°F5.2°C 38.7°F3.7°C 90% 2.7 mph N4.3 kmh N 4.5 mph7.2 kmh 29.89 in1012.2 mb 0.00 in0.0 mm 0.00 in0.0 mm 0.11 in2.8 mm
11:45 PM 41.4°F5.2°C 38.7°F3.7°C 90% 3.3 mph NE5.3 kmh NE 5.4 mph8.7 kmh 29.89 in1012.2 mb 0.00 in0.0 mm 0.00 in0.0 mm 0.11 in2.8 mm
11:50 PM 41.4°F5.2°C 38.7°F3.7°C 90% 3.0 mph NE4.8 kmh NE 4.5 mph7.2 kmh 29.89 in1012.2 mb 0.00 in0.0 mm 0.00 in0.0 mm 0.11 in2.8 mm
11:55 PM 41.3°F5.2°C 38.6°F3.7°C 90% 3.6 mph N5.8 kmh N 5.4 mph8.7 kmh 29.89 in1012.2 mb 0.00 in0.0 mm 0.00 in0.0 mm 0.11 in2.8 mm